Time;durP1;ratioP1;P1;durP2;ratioP2;P2;SDS_P1;SDS_P2;PMS_P1;PMS_P2;Temp;Humidity;BMP_temperature;BMP_pressure;BME280_temperature;BME280_humidity;BME280_pressure;Samples;Min_cycle;Max_cycle;Signal;HPM_P1;HPM_P2
2024/02/04 00:02:03;;;;;;;1.73;0.70;;;;;;;-141.50;100.00;63355.56;5115952;28;20051;-81
2024/02/04 00:04:32;;;;;;;0.80;0.50;;;;;;;-141.50;100.00;63355.56;5116623;28;20116;-80
2024/02/04 00:06:59;;;;;;;1.35;0.70;;;;;;;-141.50;100.00;63355.56;5095154;28;20117;-79
2024/02/04 00:09:28;;;;;;;0.80;0.60;;;;;;;-141.50;100.00;63355.56;5115254;28;20047;-79
2024/02/04 00:11:55;;;;;;;0.85;0.60;;;;;;;-141.50;100.00;63355.56;5098252;28;20044;-80
2024/02/04 00:14:22;;;;;;;1.90;0.75;;;;;;;-141.50;100.00;63355.56;5098939;28;20086;-80
2024/02/04 00:16:48;;;;;;;1.10;0.70;;;;;;;-141.50;100.00;63355.56;5087751;28;20104;-80
2024/02/04 00:19:15;;;;;;;1.10;0.80;;;;;;;-141.50;100.00;63355.56;5119200;28;20060;-80
2024/02/04 00:21:42;;;;;;;0.90;0.57;;;;;;;-141.50;100.00;63355.56;5075269;28;20045;-80
2024/02/04 00:24:09;;;;;;;1.58;0.80;;;;;;;-141.50;100.00;63355.56;5077487;28;20060;-80
2024/02/04 00:26:35;;;;;;;0.73;0.50;;;;;;;-141.50;100.00;63355.56;5112770;28;20044;-79
2024/02/04 00:29:02;;;;;;;1.27;0.60;;;;;;;-141.50;100.00;63355.56;5096326;28;20054;-79
2024/02/04 00:31:29;;;;;;;0.60;0.47;;;;;;;-141.50;100.00;63355.56;5096354;28;20044;-79
2024/02/04 00:33:56;;;;;;;0.65;0.50;;;;;;;-141.50;100.00;63355.56;5084771;28;20434;-81
2024/02/04 00:36:23;;;;;;;1.77;0.70;;;;;;;-141.50;100.00;63355.56;5095501;28;20043;-81
2024/02/04 00:38:49;;;;;;;1.10;0.50;;;;;;;-141.50;100.00;63355.56;5074375;28;20399;-78
2024/02/04 00:41:16;;;;;;;1.60;0.50;;;;;;;-141.50;100.00;63355.56;5078025;28;20059;-78
2024/02/04 00:43:43;;;;;;;1.20;0.50;;;;;;;-141.50;100.00;63355.56;5074906;28;20040;-80
2024/02/04 00:46:12;;;;;;;3.20;0.88;;;;;;;-141.50;100.00;63355.56;5070078;28;20052;-76
2024/02/04 00:48:40;;;;;;;2.00;0.80;;;;;;;-141.50;100.00;63355.56;5101684;28;20051;-80
2024/02/04 00:51:07;;;;;;;2.67;1.50;;;;;;;-141.50;100.00;63355.56;5102406;28;20064;-78
2024/02/04 00:53:34;;;;;;;3.10;1.42;;;;;;;-141.50;100.00;63355.56;5086810;28;20505;-76
2024/02/04 00:56:05;;;;;;;3.95;1.40;;;;;;;-141.50;100.00;63355.56;5097870;28;20059;-77
2024/02/04 00:58:35;;;;;;;2.00;1.40;;;;;;;-141.50;100.00;63355.56;5095679;28;20050;-77
2024/02/04 01:01:02;;;;;;;2.47;1.15;;;;;;;-141.50;100.00;63355.56;5095987;28;20067;-79
2024/02/04 01:03:31;;;;;;;1.60;1.10;;;;;;;-141.50;100.00;63355.56;5094622;28;20035;-80
2024/02/04 01:05:58;;;;;;;2.20;1.20;;;;;;;-141.50;100.00;63355.56;5088312;28;20044;-80
2024/02/04 01:08:24;;;;;;;2.50;1.20;;;;;;;-141.50;100.00;63355.56;5093178;28;20052;-80
2024/02/04 01:10:51;;;;;;;2.47;1.50;;;;;;;-141.50;100.00;63355.56;5091534;28;20043;-81
2024/02/04 01:13:18;;;;;;;2.40;1.30;;;;;;;-141.50;100.00;63355.56;5095615;28;20060;-79
2024/02/04 01:15:45;;;;;;;1.77;1.23;;;;;;;-141.50;100.00;63355.56;5072014;28;20044;-78
2024/02/04 01:18:12;;;;;;;2.35;1.40;;;;;;;-141.50;100.00;63355.56;5101406;28;20073;-78
2024/02/04 01:20:38;;;;;;;3.08;1.65;;;;;;;-141.50;100.00;63355.56;5110939;28;20056;-79
2024/02/04 01:23:05;;;;;;;2.50;1.55;;;;;;;-141.50;100.00;63355.56;5087125;28;20063;-80
2024/02/04 01:25:32;;;;;;;4.68;1.85;;;;;;;-141.50;100.00;63355.56;5077758;28;20050;-78
2024/02/04 01:27:59;;;;;;;2.78;1.40;;;;;;;-141.50;100.00;63355.56;5098135;28;20073;-79
2024/02/04 01:30:30;;;;;;;2.83;1.50;;;;;;;-141.50;100.00;63355.56;5097367;28;20055;-80
2024/02/04 01:32:57;;;;;;;3.22;1.58;;;;;;;-141.50;100.00;63355.56;5093330;28;20054;-79
2024/02/04 01:35:24;;;;;;;2.83;1.60;;;;;;;-141.50;100.00;63355.56;5110731;28;20062;-81
2024/02/04 01:37:51;;;;;;;2.95;1.70;;;;;;;-141.50;100.00;63355.56;5095103;28;20378;-79
2024/02/04 01:40:19;;;;;;;3.38;1.70;;;;;;;-141.50;100.00;63355.56;5093536;28;20055;-79
2024/02/04 01:42:45;;;;;;;3.25;1.60;;;;;;;-141.50;100.00;63355.56;5097154;28;20387;-80
2024/02/04 01:45:12;;;;;;;3.97;1.85;;;;;;;-141.50;100.00;63355.56;5095317;28;20092;-81
2024/02/04 01:47:39;;;;;;;2.90;1.70;;;;;;;-141.50;100.00;63355.56;5096766;28;20104;-79
2024/02/04 01:50:06;;;;;;;2.38;1.35;;;;;;;-141.50;100.00;63355.56;5102079;28;20056;-80
2024/02/04 01:52:37;;;;;;;5.85;1.67;;;;;;;-141.50;100.00;63355.56;5116334;28;20039;-79
2024/02/04 01:55:05;;;;;;;2.20;1.40;;;;;;;-141.50;100.00;63355.56;5098451;28;20055;-78
2024/02/04 01:57:34;;;;;;;3.83;1.80;;;;;;;-141.50;100.00;63355.56;5066900;28;20049;-80
2024/02/04 02:00:04;;;;;;;4.63;1.73;;;;;;;-141.50;100.00;63355.56;5082283;28;20126;-79
2024/02/04 02:02:34;;;;;;;4.43;1.77;;;;;;;-141.50;100.00;63355.56;5115637;28;20826;-80
2024/02/04 02:05:01;;;;;;;4.93;1.67;;;;;;;-141.50;100.00;63355.56;5094156;28;20087;-78
2024/02/04 02:07:28;;;;;;;3.85;1.83;;;;;;;-141.50;100.00;63355.56;5091504;28;20052;-80
2024/02/04 02:09:55;;;;;;;2.22;1.42;;;;;;;-141.50;100.00;63355.56;5095661;28;20051;-80
2024/02/04 02:12:33;;;;;;;3.92;1.80;;;;;;;-141.50;100.00;63355.56;5081002;28;20467;-80
2024/02/04 02:15:17;;;;;;;3.22;1.50;;;;;;;-141.50;100.00;63355.56;5091821;28;20057;-79
2024/02/04 02:17:52;;;;;;;2.53;1.45;;;;;;;-141.50;100.00;63355.56;5100699;28;20052;-79
2024/02/04 02:20:28;;;;;;;4.55;1.50;;;;;;;-141.50;100.00;63355.56;5104329;28;20429;-78
2024/02/04 02:23:07;;;;;;;3.90;1.30;;;;;;;-141.50;100.00;63355.56;5085652;28;20043;-79
2024/02/04 02:25:36;;;;;;;3.30;1.50;;;;;;;-141.50;100.00;63355.56;5096432;28;20083;-79
2024/02/04 02:28:03;;;;;;;2.45;1.30;;;;;;;-141.50;100.00;63355.56;5091915;28;20056;-79
2024/02/04 02:30:30;;;;;;;2.47;1.23;;;;;;;-141.50;100.00;63355.56;5114009;28;20078;-79
2024/02/04 02:32:57;;;;;;;3.20;1.40;;;;;;;-141.50;100.00;63355.56;5097682;28;20050;-80
2024/02/04 02:35:24;;;;;;;2.42;1.35;;;;;;;-141.50;100.00;63355.56;5073494;28;20052;-80
2024/02/04 02:38:03;;;;;;;2.38;1.42;;;;;;;-141.50;100.00;63355.56;5079098;28;20082;-79
2024/02/04 02:40:39;;;;;;;4.03;1.52;;;;;;;-141.50;100.00;63355.56;5115031;28;20063;-79
2024/02/04 02:43:11;;;;;;;2.45;1.40;;;;;;;-141.50;100.00;63355.56;5113659;28;20535;-79
2024/02/04 02:45:41;;;;;;;3.53;1.40;;;;;;;-141.50;100.00;63355.56;5108768;28;20056;-80
2024/02/04 02:48:09;;;;;;;1.92;1.30;;;;;;;-141.50;100.00;63355.56;5093843;28;20059;-78
2024/02/04 02:50:36;;;;;;;2.38;1.38;;;;;;;-141.50;100.00;63355.56;5086935;28;20056;-80
2024/02/04 02:53:04;;;;;;;3.30;1.42;;;;;;;-141.50;100.00;63355.56;5078101;28;20052;-82
2024/02/04 02:55:31;;;;;;;1.98;1.10;;;;;;;-141.50;100.00;63355.56;5092705;28;20220;-81
2024/02/04 02:57:58;;;;;;;2.15;1.02;;;;;;;-141.50;100.00;63355.56;5117503;28;20052;-77
2024/02/04 03:00:25;;;;;;;3.58;1.00;;;;;;;-141.50;100.00;63355.56;5091985;28;20055;-79
2024/02/04 03:02:52;;;;;;;2.85;1.45;;;;;;;-141.50;100.00;63355.56;5083852;28;20137;-79
2024/02/04 03:05:18;;;;;;;3.55;1.20;;;;;;;-141.50;100.00;63355.56;5083843;28;20081;-78
2024/02/04 03:07:45;;;;;;;2.70;0.80;;;;;;;-141.50;100.00;63355.56;5084301;28;20585;-80
2024/02/04 03:10:12;;;;;;;2.55;1.00;;;;;;;-141.50;100.00;63355.56;5101344;28;20082;-79
2024/02/04 03:12:39;;;;;;;2.22;1.10;;;;;;;-141.50;100.00;63355.56;5122268;28;20526;-80
2024/02/04 03:15:06;;;;;;;2.17;0.82;;;;;;;-141.50;100.00;63355.56;5095424;28;20039;-78
2024/02/04 03:17:33;;;;;;;1.50;0.93;;;;;;;-141.50;100.00;63355.56;5087837;28;20047;-79
2024/02/04 03:20:00;;;;;;;2.75;0.90;;;;;;;-141.50;100.00;63355.56;5104157;28;20552;-78
2024/02/04 03:22:27;;;;;;;2.05;1.05;;;;;;;-141.50;100.00;63355.56;5097870;28;20109;-80
2024/02/04 03:24:54;;;;;;;1.60;1.10;;;;;;;-141.50;100.00;63355.56;5082261;28;20064;-79
2024/02/04 03:27:21;;;;;;;2.50;1.23;;;;;;;-141.50;100.00;63355.56;5079512;28;20059;-78
2024/02/04 03:29:48;;;;;;;2.63;1.00;;;;;;;-141.50;100.00;63355.56;5085375;28;20055;-79
2024/02/04 03:32:15;;;;;;;2.60;1.38;;;;;;;-141.50;100.00;63355.56;5083946;28;20062;-80
2024/02/04 03:34:42;;;;;;;3.42;1.15;;;;;;;-141.50;100.00;63355.56;5098438;28;20672;-79
2024/02/04 03:37:10;;;;;;;2.53;1.30;;;;;;;-141.50;100.00;63355.56;5098359;28;20070;-79
2024/02/04 03:39:37;;;;;;;2.42;0.98;;;;;;;-141.50;100.00;63355.56;5082307;28;20062;-78
2024/02/04 03:42:04;;;;;;;2.20;1.10;;;;;;;-141.50;100.00;63355.56;5096226;28;20047;-80
2024/02/04 03:44:31;;;;;;;1.83;0.90;;;;;;;-141.50;100.00;63355.56;5099285;28;20063;-80
2024/02/04 03:46:58;;;;;;;2.53;0.90;;;;;;;-141.50;100.00;63355.56;5098547;28;20127;-78
2024/02/04 03:49:24;;;;;;;3.00;1.17;;;;;;;-141.50;100.00;63355.56;5098717;28;20051;-80
2024/02/04 03:51:51;;;;;;;2.58;1.27;;;;;;;-141.50;100.00;63355.56;5100050;28;20047;-78
2024/02/04 03:54:19;;;;;;;2.47;1.15;;;;;;;-141.50;100.00;63355.56;5099306;28;20075;-80
2024/02/04 03:56:46;;;;;;;1.67;0.80;;;;;;;-141.50;100.00;63355.56;5092246;28;20070;-80
2024/02/04 03:59:12;;;;;;;1.50;1.00;;;;;;;-141.50;100.00;63355.56;5078806;28;20052;-81
2024/02/04 04:01:39;;;;;;;1.73;1.10;;;;;;;-141.50;100.00;63355.56;5115328;28;20112;-78
2024/02/04 04:04:07;;;;;;;1.70;1.02;;;;;;;-141.50;100.00;63355.56;5098076;28;20063;-80
2024/02/04 04:06:34;;;;;;;3.53;1.40;;;;;;;-141.50;100.00;63355.56;5110010;28;20528;-79
2024/02/04 04:09:00;;;;;;;1.80;1.05;;;;;;;-141.50;100.00;63355.56;5116657;28;20083;-80
2024/02/04 04:11:27;;;;;;;2.10;1.00;;;;;;;-141.50;100.00;63355.56;5093867;28;20047;-79
2024/02/04 04:13:54;;;;;;;2.97;1.20;;;;;;;-141.50;100.00;63355.56;5104055;28;20245;-79
2024/02/04 04:16:22;;;;;;;2.30;1.33;;;;;;;-141.50;100.00;63355.56;5083893;28;20059;-79
2024/02/04 04:18:49;;;;;;;2.67;1.27;;;;;;;-141.50;100.00;63355.56;5110077;28;20043;-78
2024/02/04 04:21:16;;;;;;;2.38;1.40;;;;;;;-141.50;100.00;63355.56;5111733;28;20065;-80
2024/02/04 04:23:43;;;;;;;2.85;1.50;;;;;;;-141.50;100.00;63355.56;5077956;28;20518;-78
2024/02/04 04:26:10;;;;;;;2.45;1.30;;;;;;;-141.50;100.00;63355.56;5103391;28;20071;-78
2024/02/04 04:28:37;;;;;;;4.35;1.83;;;;;;;-141.50;100.00;63355.56;5113558;28;20047;-80
2024/02/04 04:31:04;;;;;;;3.67;1.15;;;;;;;-141.50;100.00;63355.56;5112939;28;20047;-80
2024/02/04 04:33:31;;;;;;;2.63;1.30;;;;;;;-141.50;100.00;63355.56;5091705;28;20051;-78
2024/02/04 04:35:58;;;;;;;2.20;1.30;;;;;;;-141.50;100.00;63355.56;5116945;28;20082;-81
2024/02/04 04:38:25;;;;;;;2.97;1.42;;;;;;;-141.50;100.00;63355.56;5123860;28;20067;-80
2024/02/04 04:40:51;;;;;;;2.35;1.48;;;;;;;-141.50;100.00;63355.56;5084418;28;20055;-80
2024/02/04 04:43:18;;;;;;;2.28;1.45;;;;;;;-141.50;100.00;63355.56;5097170;28;20071;-79
2024/02/04 04:45:45;;;;;;;3.10;1.40;;;;;;;-141.50;100.00;63355.56;5099646;28;20047;-80
2024/02/04 04:48:12;;;;;;;2.90;1.55;;;;;;;-141.50;100.00;63355.56;5095530;28;20124;-79
2024/02/04 04:50:38;;;;;;;2.40;1.25;;;;;;;-141.50;100.00;63355.56;5118525;28;20039;-78
2024/02/04 04:53:05;;;;;;;3.67;1.42;;;;;;;-141.50;100.00;63355.56;5094531;28;20082;-80
2024/02/04 04:55:32;;;;;;;2.20;1.20;;;;;;;-141.50;100.00;63355.56;5094236;28;20130;-79
2024/02/04 04:57:58;;;;;;;3.33;1.58;;;;;;;-141.50;100.00;63355.56;5118590;28;20159;-79
2024/02/04 05:00:25;;;;;;;2.08;1.20;;;;;;;-141.50;100.00;63355.56;5092864;28;20051;-79
2024/02/04 05:02:52;;;;;;;2.70;1.35;;;;;;;-141.50;100.00;63355.56;5103652;28;20047;-78
2024/02/04 05:05:19;;;;;;;2.65;1.20;;;;;;;-141.50;100.00;63355.56;5118569;28;20699;-78
2024/02/04 05:07:46;;;;;;;2.95;1.48;;;;;;;-141.50;100.00;63355.56;5095281;28;20052;-78
2024/02/04 05:10:13;;;;;;;3.08;1.40;;;;;;;-141.50;100.00;63355.56;5085896;28;20052;-77
2024/02/04 05:12:40;;;;;;;3.22;1.58;;;;;;;-141.50;100.00;63355.56;5090715;28;20075;-78
2024/02/04 05:15:08;;;;;;;3.45;1.83;;;;;;;-141.50;100.00;63355.56;5094272;28;20055;-78
2024/02/04 05:17:35;;;;;;;3.92;1.95;;;;;;;-141.50;100.00;63355.56;5116097;28;20051;-77
2024/02/04 05:20:05;;;;;;;5.68;2.03;;;;;;;-141.50;100.00;63355.56;5120931;28;20259;-79
2024/02/04 05:22:31;;;;;;;3.13;1.83;;;;;;;-141.50;100.00;63355.56;5110841;28;20051;-79
2024/02/04 05:24:58;;;;;;;3.25;1.90;;;;;;;-141.50;100.00;63355.56;5116024;28;20063;-79
2024/02/04 05:27:25;;;;;;;6.55;1.88;;;;;;;-141.50;100.00;63355.56;5117040;28;20102;-79
2024/02/04 05:29:52;;;;;;;4.00;1.83;;;;;;;-141.50;100.00;63355.56;5100600;28;20070;-79
2024/02/04 05:32:19;;;;;;;4.18;1.80;;;;;;;-141.50;100.00;63355.56;5115136;28;20072;-80
2024/02/04 05:34:46;;;;;;;3.75;2.10;;;;;;;-141.50;100.00;63355.56;5099147;28;20071;-80
2024/02/04 05:37:13;;;;;;;4.22;2.20;;;;;;;-141.50;100.00;63355.56;5093677;28;20133;-79
2024/02/04 05:39:40;;;;;;;3.92;2.17;;;;;;;-141.50;100.00;63355.56;5095903;28;20065;-79
2024/02/04 05:42:07;;;;;;;3.72;1.92;;;;;;;-141.50;100.00;63355.56;5094476;28;20052;-80
2024/02/04 05:44:33;;;;;;;4.45;2.03;;;;;;;-141.50;100.00;63355.56;5115981;28;20047;-80
2024/02/04 05:47:00;;;;;;;3.28;1.90;;;;;;;-141.50;100.00;63355.56;5110757;28;20059;-80
2024/02/04 05:49:27;;;;;;;2.38;1.45;;;;;;;-141.50;100.00;63355.56;5110451;28;20044;-80
2024/02/04 05:51:54;;;;;;;3.25;1.60;;;;;;;-141.50;100.00;63355.56;5084354;28;20052;-80
2024/02/04 05:54:21;;;;;;;2.53;1.40;;;;;;;-141.50;100.00;63355.56;5118659;28;20055;-77
2024/02/04 05:56:47;;;;;;;2.00;1.27;;;;;;;-141.50;100.00;63355.56;5093156;28;20063;-80
2024/02/04 05:59:16;;;;;;;4.25;1.30;;;;;;;-141.50;100.00;63355.56;5101315;28;20063;-78
2024/02/04 06:01:43;;;;;;;3.38;0.98;;;;;;;-141.50;100.00;63355.56;5119082;28;20058;-80
2024/02/04 06:04:10;;;;;;;2.38;1.20;;;;;;;-141.50;100.00;63355.56;5116770;28;20051;-79
2024/02/04 06:06:37;;;;;;;3.58;1.38;;;;;;;-141.50;100.00;63355.56;5117038;28;20613;-79
2024/02/04 06:09:04;;;;;;;1.23;0.80;;;;;;;-141.50;100.00;63355.56;5104906;28;20151;-78
2024/02/04 06:11:30;;;;;;;4.25;1.10;;;;;;;-141.50;100.00;63355.56;5109670;28;20083;-79
2024/02/04 06:13:59;;;;;;;1.13;0.80;;;;;;;-141.50;100.00;63355.56;5091771;28;20047;-79
2024/02/04 06:16:26;;;;;;;1.67;0.82;;;;;;;-141.50;100.00;63355.56;5110887;28;20065;-79
2024/02/04 06:18:58;;;;;;;2.22;1.00;;;;;;;-141.50;100.00;63355.56;5112164;28;20057;-79
2024/02/04 06:21:25;;;;;;;1.63;0.90;;;;;;;-141.50;100.00;63355.56;5115723;28;20136;-79
2024/02/04 06:23:52;;;;;;;1.23;0.73;;;;;;;-141.50;100.00;63355.56;5121341;28;20108;-79
2024/02/04 06:26:19;;;;;;;1.58;0.90;;;;;;;-141.50;100.00;63355.56;5099821;28;20158;-78
2024/02/04 06:28:46;;;;;;;1.33;0.90;;;;;;;-141.50;100.00;63355.56;5100397;28;20082;-81
2024/02/04 06:31:13;;;;;;;1.17;0.80;;;;;;;-141.50;100.00;63355.56;5100845;28;20112;-78
2024/02/04 06:33:40;;;;;;;1.10;0.60;;;;;;;-141.50;100.00;63355.56;5119648;28;20060;-80
2024/02/04 06:36:10;;;;;;;1.10;0.75;;;;;;;-141.50;100.00;63355.56;5078596;28;20075;-80
2024/02/04 06:38:37;;;;;;;2.38;0.82;;;;;;;-141.50;100.00;63355.56;5119321;28;20043;-80
2024/02/04 06:41:04;;;;;;;0.80;0.60;;;;;;;-141.50;100.00;63355.56;5124285;28;20120;-80
2024/02/04 06:43:31;;;;;;;1.77;0.60;;;;;;;-141.50;100.00;63355.56;5122804;28;20690;-80
2024/02/04 06:46:02;;;;;;;1.67;0.85;;;;;;;-141.50;100.00;63355.56;5120177;28;20059;-79
2024/02/04 06:48:29;;;;;;;1.35;0.80;;;;;;;-141.50;100.00;63355.56;5098103;28;20040;-79
2024/02/04 06:50:56;;;;;;;2.03;0.90;;;;;;;-141.50;100.00;63355.56;5097179;28;20055;-79
2024/02/04 06:53:23;;;;;;;1.13;0.70;;;;;;;-141.50;100.00;63355.56;5098278;28;20482;-79
2024/02/04 06:55:50;;;;;;;1.30;0.98;;;;;;;-141.50;100.00;63355.56;5100201;28;20067;-78
2024/02/04 06:58:16;;;;;;;1.33;0.90;;;;;;;-141.50;100.00;63355.56;5119868;28;20055;-79
2024/02/04 07:00:43;;;;;;;0.93;0.80;;;;;;;-141.50;100.00;63355.56;5117408;28;20039;-79
2024/02/04 07:03:10;;;;;;;1.20;0.90;;;;;;;-141.50;100.00;63355.56;5120558;28;20048;-78
2024/02/04 07:05:37;;;;;;;1.02;0.77;;;;;;;-141.50;100.00;63355.56;5105366;28;20218;-77
2024/02/04 07:08:04;;;;;;;0.88;0.70;;;;;;;-141.50;100.00;63355.56;5096613;28;20101;-78
2024/02/04 07:10:31;;;;;;;0.85;0.65;;;;;;;-141.50;100.00;63355.56;5092796;28;20043;-77
2024/02/04 07:12:58;;;;;;;0.90;0.60;;;;;;;-141.50;100.00;63355.56;5072127;28;20053;-79
2024/02/04 07:15:24;;;;;;;1.38;0.60;;;;;;;-141.50;100.00;63355.56;5093577;28;20050;-79
2024/02/04 07:17:51;;;;;;;1.02;0.65;;;;;;;-141.50;100.00;63355.56;5097594;28;20052;-79
2024/02/04 07:20:19;;;;;;;1.08;0.70;;;;;;;-141.50;100.00;63355.56;5075082;28;20048;-79
2024/02/04 07:22:47;;;;;;;0.70;0.50;;;;;;;-141.50;100.00;63355.56;5077930;28;20091;-80
2024/02/04 07:25:15;;;;;;;0.73;0.50;;;;;;;-141.50;100.00;63355.56;5079288;28;20056;-77
2024/02/04 07:27:42;;;;;;;0.75;0.50;;;;;;;-141.50;100.00;63355.56;5098831;28;20055;-79
2024/02/04 07:30:09;;;;;;;0.95;0.50;;;;;;;-141.50;100.00;63355.56;5101846;28;20060;-79
2024/02/04 07:32:37;;;;;;;0.55;0.40;;;;;;;-141.50;100.00;63355.56;5084078;28;20542;-79
2024/02/04 07:35:05;;;;;;;0.63;0.43;;;;;;;-141.50;100.00;63355.56;5087278;28;20087;-79
2024/02/04 07:37:33;;;;;;;2.15;0.30;;;;;;;-141.50;100.00;63355.56;5099490;28;20085;-78
2024/02/04 07:40:00;;;;;;;0.43;0.20;;;;;;;-141.50;100.00;63355.56;5101707;28;20060;-80
2024/02/04 07:42:27;;;;;;;0.30;0.30;;;;;;;-141.50;100.00;63355.56;5077108;28;20040;-79
2024/02/04 07:44:54;;;;;;;2.75;0.45;;;;;;;-141.50;100.00;63355.56;5114026;28;20055;-79
2024/02/04 07:47:21;;;;;;;0.40;0.30;;;;;;;-141.50;100.00;63355.56;5119575;28;20077;-77
2024/02/04 07:49:49;;;;;;;2.78;0.45;;;;;;;-141.50;100.00;63355.56;5096169;28;20078;-78
2024/02/04 07:52:16;;;;;;;0.52;0.30;;;;;;;-141.50;100.00;63355.56;5104899;28;20136;-78
2024/02/04 07:54:43;;;;;;;0.30;0.20;;;;;;;-141.50;100.00;63355.56;5113998;28;20134;-79
2024/02/04 07:57:10;;;;;;;0.47;0.28;;;;;;;-141.50;100.00;63355.56;5102854;28;20047;-77
2024/02/04 07:59:37;;;;;;;1.50;0.20;;;;;;;-141.50;100.00;63355.56;5107972;28;20031;-79
2024/02/04 08:02:04;;;;;;;0.98;0.20;;;;;;;-141.50;100.00;63355.56;5117588;28;20125;-80
2024/02/04 08:04:31;;;;;;;0.40;0.30;;;;;;;-141.50;100.00;63355.56;5109132;28;20055;-80
2024/02/04 08:06:58;;;;;;;0.43;0.30;;;;;;;-141.50;100.00;63355.56;5109024;28;20146;-83
2024/02/04 08:09:25;;;;;;;0.77;0.30;;;;;;;-141.50;100.00;63355.56;5081778;28;20127;-82
2024/02/04 08:11:52;;;;;;;0.40;0.25;;;;;;;-141.50;100.00;63355.56;5119713;28;20060;-78
2024/02/04 08:14:20;;;;;;;1.88;0.20;;;;;;;-141.50;100.00;63355.56;5120413;28;20333;-78
2024/02/04 08:16:48;;;;;;;0.30;0.25;;;;;;;-141.50;100.00;63355.56;5126742;28;20047;-78
2024/02/04 08:19:15;;;;;;;0.73;0.30;;;;;;;-141.50;100.00;63355.56;5104665;28;20064;-79
2024/02/04 08:21:42;;;;;;;0.22;0.20;;;;;;;-141.50;100.00;63355.56;5119684;28;20137;-78
2024/02/04 08:24:09;;;;;;;0.45;0.17;;;;;;;-141.50;100.00;63355.56;5120047;28;20521;-78
2024/02/04 08:26:35;;;;;;;2.30;0.28;;;;;;;-141.50;100.00;63355.56;5091995;28;20055;-78
2024/02/04 08:29:02;;;;;;;0.43;0.30;;;;;;;-141.50;100.00;63355.56;5116822;28;20119;-79
2024/02/04 08:31:32;;;;;;;0.30;0.22;;;;;;;-141.50;100.00;63355.56;5112856;28;20050;-77
2024/02/04 08:33:58;;;;;;;0.15;0.10;;;;;;;-141.50;100.00;63355.56;5111472;28;20052;-78
2024/02/04 08:36:25;;;;;;;1.02;0.30;;;;;;;-141.50;100.00;63355.56;5098742;28;20089;-78
2024/02/04 08:38:52;;;;;;;0.28;0.28;;;;;;;-141.50;100.00;63355.56;5098609;28;20110;-78
2024/02/04 08:41:19;;;;;;;0.55;0.25;;;;;;;-141.50;100.00;63355.56;5098089;28;20048;-79
2024/02/04 08:43:46;;;;;;;0.35;0.20;;;;;;;-141.50;100.00;63355.56;5117682;28;20095;-80
2024/02/04 08:46:13;;;;;;;0.30;0.20;;;;;;;-141.50;100.00;63355.56;5097988;28;20048;-76
2024/02/04 08:48:42;;;;;;;0.50;0.20;;;;;;;-141.50;100.00;63355.56;5109128;28;20043;-79
2024/02/04 08:51:13;;;;;;;0.40;0.25;;;;;;;-141.50;100.00;63355.56;5114269;28;20056;-79
2024/02/04 08:53:41;;;;;;;0.30;0.20;;;;;;;-141.50;100.00;63355.56;5115194;28;20047;-77
2024/02/04 08:56:08;;;;;;;0.38;0.25;;;;;;;-141.50;100.00;63355.56;5117190;28;20043;-78
2024/02/04 08:58:37;;;;;;;0.47;0.30;;;;;;;-141.50;100.00;63355.56;5093272;28;20051;-78
2024/02/04 09:01:05;;;;;;;0.60;0.30;;;;;;;-141.50;100.00;63355.56;5096446;28;20060;-77
2024/02/04 09:03:33;;;;;;;1.33;0.30;;;;;;;-141.50;100.00;63355.56;5110847;28;20062;-77
2024/02/04 09:06:00;;;;;;;0.77;0.30;;;;;;;-141.50;100.00;63355.56;5077179;28;20095;-78
2024/02/04 09:08:27;;;;;;;0.80;0.45;;;;;;;-141.50;100.00;63355.56;5095980;28;20051;-78
2024/02/04 09:10:54;;;;;;;0.73;0.45;;;;;;;-141.50;100.00;63355.56;5101992;28;20181;-77
2024/02/04 09:13:20;;;;;;;1.45;0.43;;;;;;;-141.50;100.00;63355.56;5108270;28;20061;-80
2024/02/04 09:15:48;;;;;;;0.50;0.30;;;;;;;-141.50;100.00;63355.56;5074618;28;20047;-78
2024/02/04 09:18:15;;;;;;;0.80;0.40;;;;;;;-141.50;100.00;63355.56;5074194;28;20295;-80
2024/02/04 09:20:42;;;;;;;0.20;0.20;;;;;;;-141.50;100.00;63355.56;5092030;27;20040;-80
2024/02/04 09:23:09;;;;;;;0.35;0.30;;;;;;;-141.50;100.00;63355.56;5091521;28;20086;-80
2024/02/04 09:25:35;;;;;;;1.92;0.50;;;;;;;-141.50;100.00;63355.56;5101196;28;20117;-79
2024/02/04 09:28:02;;;;;;;0.60;0.40;;;;;;;-141.50;100.00;63355.56;5106298;28;20063;-78
2024/02/04 09:30:29;;;;;;;0.70;0.30;;;;;;;-141.50;100.00;63355.56;5107818;28;20119;-80
2024/02/04 09:32:56;;;;;;;0.77;0.38;;;;;;;-141.50;100.00;63355.56;5107190;28;20520;-78
2024/02/04 09:35:24;;;;;;;0.30;0.30;;;;;;;-141.50;100.00;63355.56;5110640;28;20116;-78
2024/02/04 09:37:51;;;;;;;0.98;0.40;;;;;;;-141.50;100.00;63355.56;5096124;28;20146;-79
2024/02/04 09:40:19;;;;;;;0.95;0.40;;;;;;;-141.50;100.00;63355.56;5096027;28;20051;-77
2024/02/04 09:42:46;;;;;;;0.80;0.50;;;;;;;-141.50;100.00;63355.56;5093715;28;20051;-78
2024/02/04 09:45:14;;;;;;;0.80;0.52;;;;;;;-141.50;100.00;63355.56;5104441;28;20079;-79
2024/02/04 09:47:44;;;;;;;0.85;0.52;;;;;;;-141.50;100.00;63355.56;5091717;28;20060;-79
2024/02/04 09:50:11;;;;;;;1.83;0.43;;;;;;;-141.50;100.00;63355.56;5112093;28;20061;-78
2024/02/04 09:52:45;;;;;;;0.80;0.50;;;;;;;-141.50;100.00;63355.56;5106797;28;20044;-78
2024/02/04 09:55:13;;;;;;;0.38;0.30;;;;;;;-141.50;100.00;63355.56;5093248;28;20060;-80
2024/02/04 09:57:44;;;;;;;0.85;0.40;;;;;;;-141.50;100.00;63355.56;5113664;27;20505;-77
2024/02/04 10:00:12;;;;;;;3.83;0.70;;;;;;;-141.50;100.00;63355.56;5100277;28;20052;-77
2024/02/04 10:02:41;;;;;;;0.95;0.80;;;;;;;-141.50;100.00;63355.56;5107821;28;20070;-79
2024/02/04 10:05:10;;;;;;;1.20;0.90;;;;;;;-141.50;100.00;63355.56;5114682;27;20050;-77
2024/02/04 10:07:37;;;;;;;0.75;0.50;;;;;;;-141.50;100.00;63355.56;5114242;28;20107;-77
2024/02/04 10:10:07;;;;;;;1.55;0.40;;;;;;;-141.50;100.00;63355.56;5107977;28;20549;-76
2024/02/04 10:12:35;;;;;;;0.80;0.40;;;;;;;-141.50;100.00;63355.56;5118862;27;20047;-77
2024/02/04 10:15:03;;;;;;;0.70;0.60;;;;;;;-141.50;100.00;63355.56;5111447;27;20617;-78
2024/02/04 10:17:32;;;;;;;0.32;0.30;;;;;;;-141.50;100.00;63355.56;5110667;28;20082;-78
2024/02/04 10:20:00;;;;;;;0.50;0.30;;;;;;;-141.50;100.00;63355.56;5112926;27;20054;-78
2024/02/04 10:22:30;;;;;;;1.13;0.50;;;;;;;-141.50;100.00;63355.56;5094771;28;20051;-78
2024/02/04 10:25:12;;;;;;;1.33;0.52;;;;;;;-141.50;100.00;63355.56;5107268;27;20571;-78
2024/02/04 10:27:41;;;;;;;1.20;0.60;;;;;;;-141.50;100.00;63355.56;5092849;27;20108;-78
2024/02/04 10:30:08;;;;;;;1.52;0.45;;;;;;;-141.50;100.00;63355.56;5096414;28;20073;-78
2024/02/04 10:32:35;;;;;;;0.98;0.40;;;;;;;-141.50;100.00;63355.56;5117376;28;20051;-78
2024/02/04 10:35:02;;;;;;;2.05;0.70;;;;;;;-141.50;100.00;63355.56;5104799;28;20055;-80
2024/02/04 10:37:29;;;;;;;0.70;0.45;;;;;;;-141.50;100.00;63355.56;5092606;28;20058;-80
2024/02/04 10:39:57;;;;;;;0.88;0.50;;;;;;;-141.50;100.00;63355.56;5092779;28;20048;-80
2024/02/04 10:42:26;;;;;;;0.68;0.30;;;;;;;-141.50;100.00;63355.56;5113255;27;20090;-79
2024/02/04 10:44:58;;;;;;;1.00;0.50;;;;;;;-141.50;100.00;63355.56;5109225;27;20054;-78
2024/02/04 10:47:32;;;;;;;2.00;0.57;;;;;;;-141.50;100.00;63355.56;5075057;28;20630;-79
2024/02/04 10:50:03;;;;;;;0.98;0.60;;;;;;;-141.50;100.00;63355.56;5109636;28;20150;-79
2024/02/04 10:52:39;;;;;;;1.25;0.70;;;;;;;-141.50;100.00;63355.56;5112050;27;20777;-81
2024/02/04 10:55:10;;;;;;;;;;;;;;;-141.50;100.00;63355.56;5106682;27;20127;-80
2024/02/04 10:57:39;;;;;;;1.48;0.70;;;;;;;-141.50;100.00;63355.56;5115036;27;19924;-77
2024/02/04 11:00:08;;;;;;;1.88;0.63;;;;;;;-141.50;100.00;63355.56;5120685;27;20052;-80
2024/02/04 11:02:37;;;;;;;1.25;0.70;;;;;;;-141.50;100.00;63355.56;5111991;28;20047;-78
2024/02/04 11:05:05;;;;;;;2.25;0.70;;;;;;;-141.50;100.00;63355.56;5117142;27;20115;-79
2024/02/04 11:07:36;;;;;;;0.93;0.70;;;;;;;-141.50;100.00;63355.56;5114392;27;20130;-80
2024/02/04 11:10:04;;;;;;;1.42;0.80;;;;;;;-141.50;100.00;63355.56;5114312;27;20106;-79
2024/02/04 11:12:33;;;;;;;1.75;0.80;;;;;;;-141.50;100.00;63355.56;5114587;27;20043;-80